Impacts METAR Board
IDs:

KCLE - Cleveland/Hopkins In, OH, US

Updated at: 1000 UTC 18 Jan 2019
Potential Impact None Slight Moderate High
Time 17/22Z 17/23Z 18/00Z 18/01Z 18/02Z 18/03Z 18/04Z 18/05Z 18/06Z 18/07Z 18/08Z 18/09Z 18/10Z
Temp32 32 32 32 34 34 35 34 35 34 34 34 33
Dewpt28 29 29 30 31 31 32 32 32 32 33 32 31
Altim30.04 30.03 30.02 30.02 30.00 29.99 29.99 29.99 29.97 29.98 30.00 30.00 30.02
VIS1.75 4 1.5 1.75 3 5 5 3 7 3 3 6 4
CIG36 38 24 24 29 24 22 15 8 4 3 5 5
CoverOVCOVCOVCOVCOVCOVCOVCOVCOVCOVCOVCOVCOVC
FltCatIFRMVFRIFRIFRMVFRMVFRMVFRMVFRIFRLIFRLIFRIFRIFR
WX-SN-SN-SN-SN-SN-SN-SN-SN BR---SN BR-SN BR-SN BR-SN BR
WDir140150150160170180190190220240260270290
WSpd7 6 8 9 8 8 7 6 5 6 8 9 9
WGst-- -- -- -- -- -- -- -- -- -- -- -- --
Raw hourly METARs
KCLE 172205Z 14007KT 1 3/4SM -SN BKN036 OVC049 00/M02 A3004 RMK AO2 P0000 T00001022
KCLE 172251Z 15006KT 4SM -SN OVC038 00/M02 A3003 RMK AO2 SLP180 P0001 T00001017
KCLE 172351Z 15008KT 1 1/2SM -SN OVC024 00/M02 A3002 RMK AO2 SLP176 4/001 P0001 60002 T00001017 10000 21006 56008
KCLE 180051Z 16009KT 1 3/4SM -SN OVC024 00/M01 A3002 RMK AO2 SLP173 P0002 T00001011
KCLE 180201Z 17008KT 3SM -SN BKN029 OVC034 01/M01 A3000 RMK AO2 P0000 T00111006
KCLE 180251Z 18008KT 5SM -SN FEW010 OVC024 01/M01 A2999 RMK AO2 SLP165 P0000 60004 T00111006 56009
KCLE 180351Z 19007KT 5SM -SN OVC022 02/00 A2999 RMK AO2 SLP165 P0000 T00170000
KCLE 180451Z 19006KT 3SM -SN BR OVC015 01/00 A2999 RMK AO2 SLP163 P0001 T00110000 400171056
KCLE 180601Z 22005KT 7SM OVC008 02/00 A2997 RMK AO2 T00170000
KCLE 180701Z 24006KT 3SM -SN BR OVC004 01/00 A2998 RMK AO2 P0000 T00110000
KCLE 180801Z 26008KT 3SM -SN BR OVC003 01/01 A3000 RMK AO2 P0000 T00110006
KCLE 180851Z 27009KT 6SM -SN BR OVC005 01/00 A3000 RMK AO2 SLP168 P0000 60000 T00110000 51008
KCLE 180951Z 29009KT 4SM -SN BR OVC005 01/M01 A3002 RMK AO2 SLP173 P0000 T00061006



Page loaded:  10:22 UTC  |   02:22 AM Pacific  |   03:22 AM Mountain  |   04:22 AM Central  |   05:22 AM Eastern

 

ADVISORIES

FORECASTS

FORECASTS

OBSERVATIONS

USER TOOLS

ABOUT US